Time;durP1;ratioP1;P1;durP2;ratioP2;P2;SDS_P1;SDS_P2;PMS_P1;PMS_P2;Temp;Humidity;BMP_temperature;BMP_pressure;BME280_temperature;BME280_humidity;BME280_pressure;Samples;Min_cycle;Max_cycle;Signal;HPM_P1;HPM_P2
2021/06/16 00:00:17;;;;;;;6.13;2.40;;;17.30;61.00;;;;;;4994145;28;20396;-67
2021/06/16 00:02:46;;;;;;;5.38;1.90;;;17.20;61.10;;;;;;4978138;28;20067;-67
2021/06/16 00:05:21;;;;;;;5.28;2.13;;;17.20;61.20;;;;;;4981009;28;20055;-67
2021/06/16 00:07:49;;;;;;;5.80;1.88;;;17.20;61.30;;;;;;4957591;28;20056;-68
2021/06/16 00:10:20;;;;;;;6.90;2.58;;;17.20;61.40;;;;;;4957620;28;20457;-67
2021/06/16 00:12:48;;;;;;;5.35;2.05;;;17.10;61.50;;;;;;4975545;28;20066;-68
2021/06/16 00:15:28;;;;;;;6.15;2.30;;;17.10;61.60;;;;;;4987073;28;20376;-68
2021/06/16 00:18:01;;;;;;;4.85;1.90;;;17.00;61.70;;;;;;4943576;28;20058;-68
2021/06/16 00:20:31;;;;;;;5.28;2.00;;;17.00;61.70;;;;;;4957991;28;20697;-69
2021/06/16 00:22:59;;;;;;;6.82;1.95;;;16.90;61.80;;;;;;4975220;28;20389;-67
2021/06/16 00:25:28;;;;;;;5.35;2.00;;;16.90;62.00;;;;;;4976138;28;20058;-69
2021/06/16 00:27:56;;;;;;;7.55;2.15;;;16.90;62.10;;;;;;4975355;28;20055;-68
2021/06/16 00:30:25;;;;;;;7.10;1.88;;;16.90;62.20;;;;;;4959137;28;20046;-68
2021/06/16 00:32:54;;;;;;;6.78;2.00;;;16.90;62.30;;;;;;4958250;28;20062;-69
2021/06/16 00:35:22;;;;;;;5.30;1.95;;;16.90;62.30;;;;;;4974348;28;20077;-69
2021/06/16 00:37:52;;;;;;;5.43;2.10;;;16.90;62.40;;;;;;4976339;28;20046;-70
2021/06/16 00:40:25;;;;;;;6.43;1.77;;;16.90;62.50;;;;;;4957895;28;20054;-70
2021/06/16 00:42:57;;;;;;;7.35;1.90;;;16.90;62.60;;;;;;4958957;28;20413;-70
2021/06/16 00:45:25;;;;;;;6.25;1.70;;;16.90;62.60;;;;;;4958745;28;20051;-70
2021/06/16 00:47:57;;;;;;;7.28;2.08;;;16.80;62.70;;;;;;4975025;28;20081;-70
2021/06/16 00:50:30;;;;;;;6.40;2.00;;;16.80;62.80;;;;;;4975842;28;20058;-71
2021/06/16 00:52:59;;;;;;;5.93;1.65;;;16.80;63.00;;;;;;4975479;28;20051;-69
2021/06/16 00:55:27;;;;;;;8.20;1.83;;;16.80;63.00;;;;;;4974659;28;20074;-69
2021/06/16 00:57:57;;;;;;;9.50;1.90;;;16.80;63.00;;;;;;4958805;28;20054;-68
2021/06/16 01:00:30;;;;;;;13.00;2.10;;;16.80;63.00;;;;;;4974742;28;20483;-68
2021/06/16 01:03:07;;;;;;;7.68;1.80;;;16.70;63.10;;;;;;4959397;28;20069;-69
2021/06/16 01:05:47;;;;;;;8.82;1.80;;;16.70;62.80;;;;;;4975792;28;20047;-68
2021/06/16 01:08:26;;;;;;;10.45;2.00;;;16.80;62.80;;;;;;4957651;28;20054;-70
2021/06/16 01:10:58;;;;;;;12.57;1.70;;;16.80;62.90;;;;;;4958598;28;20039;-70
2021/06/16 01:13:32;;;;;;;6.95;3.15;;;16.80;62.70;;;;;;4958084;28;20058;-70
2021/06/16 01:16:00;;;;;;;;;;;16.80;62.50;;;;;;4955900;29;20047;-71
2021/06/16 01:18:33;;;;;;;7.55;1.50;;;16.90;62.20;;;;;;4958213;28;20359;-69
2021/06/16 01:21:03;;;;;;;7.43;2.10;;;16.90;61.90;;;;;;4941739;28;20063;-71
2021/06/16 01:23:56;;;;;;;8.32;2.13;;;16.90;61.60;;;;;;4974766;28;20059;-70
2021/06/16 01:26:27;;;;;;;8.93;1.98;;;17.00;61.00;;;;;;4957512;28;20050;-70
2021/06/16 01:29:15;;;;;;;10.88;1.60;;;17.00;60.70;;;;;;4975160;28;20050;-68
2021/06/16 01:31:46;;;;;;;6.55;1.90;;;17.00;60.50;;;;;;4957934;28;20054;-70
2021/06/16 01:34:20;;;;;;;8.10;1.73;;;17.00;60.40;;;;;;4974757;28;20054;-69
2021/06/16 01:36:50;;;;;;;5.65;1.73;;;17.00;60.50;;;;;;4957412;28;20057;-70
2021/06/16 01:39:22;;;;;;;6.72;1.70;;;17.10;60.20;;;;;;4975391;28;20055;-70
2021/06/16 01:41:53;;;;;;;9.38;1.58;;;17.10;60.00;;;;;;4957164;28;20055;-69
2021/06/16 01:44:24;;;;;;;9.35;1.90;;;17.10;60.10;;;;;;4955365;28;20059;-69
2021/06/16 01:46:52;;;;;;;11.82;2.30;;;17.10;60.00;;;;;;4958816;29;20147;-68
2021/06/16 01:49:24;;;;;;;7.75;2.05;;;17.00;60.00;;;;;;4959887;29;20051;-69
2021/06/16 01:51:53;;;;;;;5.65;1.60;;;17.00;60.00;;;;;;4959223;29;20058;-68
2021/06/16 01:54:24;;;;;;;6.90;2.00;;;17.00;60.10;;;;;;4941642;29;20054;-70
2021/06/16 01:56:54;;;;;;;8.02;1.52;;;17.00;60.10;;;;;;4959376;28;20051;-68
2021/06/16 01:59:24;;;;;;;5.18;1.65;;;17.00;60.20;;;;;;4960002;29;20055;-68
2021/06/16 02:01:52;;;;;;;8.18;2.10;;;17.00;60.10;;;;;;4958279;28;20053;-69
2021/06/16 02:04:21;;;;;;;9.38;1.77;;;16.90;59.90;;;;;;4959461;29;20059;-68
2021/06/16 02:07:00;;;;;;;4.85;1.65;;;17.00;60.10;;;;;;4958268;29;20070;-68
2021/06/16 02:09:29;;;;;;;15.63;1.85;;;16.90;60.00;;;;;;4959698;29;20059;-70
2021/06/16 02:11:57;;;;;;;18.25;2.20;;;16.90;59.90;;;;;;4959763;29;20382;-69
2021/06/16 02:14:27;;;;;;;30.95;2.63;;;16.90;59.90;;;;;;4941186;29;20055;-70
2021/06/16 02:17:04;;;;;;;17.65;1.92;;;17.00;59.90;;;;;;4958371;29;20136;-68
2021/06/16 02:19:33;;;;;;;14.32;2.17;;;17.00;60.10;;;;;;4996047;28;20081;-70
2021/06/16 02:22:07;;;;;;;19.67;2.35;;;17.00;59.90;;;;;;4996553;28;20062;-70
2021/06/16 02:24:35;;;;;;;14.25;2.20;;;17.00;59.80;;;;;;4996883;28;20062;-67
2021/06/16 02:27:03;;;;;;;7.10;1.75;;;17.00;59.70;;;;;;4995836;28;20066;-68
2021/06/16 02:29:32;;;;;;;14.07;2.63;;;16.90;59.70;;;;;;4998157;28;20065;-70
2021/06/16 02:32:00;;;;;;;13.90;2.35;;;17.00;59.70;;;;;;4996589;28;20058;-69
2021/06/16 02:34:29;;;;;;;16.13;2.38;;;16.90;59.90;;;;;;4996871;28;20047;-70
2021/06/16 02:37:00;;;;;;;15.18;2.33;;;17.00;60.10;;;;;;4980431;28;20062;-68
2021/06/16 02:39:39;;;;;;;12.25;1.73;;;16.90;60.20;;;;;;4996778;28;20065;-70
2021/06/16 02:42:09;;;;;;;6.38;1.67;;;16.90;60.50;;;;;;4997215;28;20050;-69
2021/06/16 02:44:42;;;;;;;7.03;1.70;;;17.00;60.60;;;;;;4997313;28;20062;-71
2021/06/16 02:47:12;;;;;;;8.23;1.88;;;16.90;60.80;;;;;;4987722;28;20058;-69
2021/06/16 02:49:44;;;;;;;8.07;1.80;;;16.90;60.80;;;;;;4977068;28;20376;-70
2021/06/16 02:52:16;;;;;;;10.27;2.08;;;16.80;61.00;;;;;;4978417;28;20058;-69
2021/06/16 02:54:49;;;;;;;;;;;16.80;61.10;;;;;;4976459;28;20119;-69
2021/06/16 02:57:24;;;;;;;7.63;1.80;;;16.80;61.10;;;;;;4961318;28;19922;-70
2021/06/16 02:59:54;;;;;;;8.23;1.52;;;16.80;61.10;;;;;;4977307;28;20055;-70
2021/06/16 03:02:24;;;;;;;5.15;1.67;;;16.80;61.20;;;;;;4977702;28;20385;-69
2021/06/16 03:04:55;;;;;;;9.50;2.10;;;16.70;61.30;;;;;;4961249;28;20384;-68
2021/06/16 03:07:25;;;;;;;7.05;2.10;;;16.70;61.40;;;;;;4976450;28;20046;-68
2021/06/16 03:09:55;;;;;;;7.63;2.50;;;16.60;61.40;;;;;;4976911;28;20074;-68
2021/06/16 03:12:24;;;;;;;6.95;2.15;;;16.60;61.60;;;;;;4977683;28;20051;-69
2021/06/16 03:14:53;;;;;;;4.63;2.10;;;16.60;61.70;;;;;;4986269;28;20469;-68
2021/06/16 03:17:22;;;;;;;9.60;1.90;;;16.50;61.90;;;;;;4996189;28;20065;-70
2021/06/16 03:19:50;;;;;;;11.35;2.33;;;16.50;62.10;;;;;;4962328;28;20062;-70
2021/06/16 03:22:19;;;;;;;5.75;1.95;;;16.40;62.20;;;;;;4977392;28;20055;-70
2021/06/16 03:24:49;;;;;;;8.65;1.90;;;16.40;62.20;;;;;;4977198;28;20058;-69
2021/06/16 03:27:24;;;;;;;7.32;2.00;;;16.30;62.40;;;;;;4976272;28;20058;-68
2021/06/16 03:29:53;;;;;;;4.45;1.67;;;16.30;62.40;;;;;;4977142;28;20055;-70
2021/06/16 03:32:23;;;;;;;6.68;1.70;;;16.30;62.50;;;;;;4976823;28;20402;-69
2021/06/16 03:34:51;;;;;;;7.20;2.10;;;16.30;62.70;;;;;;4976426;28;20059;-69
2021/06/16 03:37:20;;;;;;;6.45;2.20;;;16.20;62.90;;;;;;4977131;28;20074;-69
2021/06/16 03:39:52;;;;;;;6.45;1.75;;;16.20;63.00;;;;;;4975943;28;20059;-69
2021/06/16 03:42:20;;;;;;;7.60;2.03;;;16.20;63.10;;;;;;4976708;28;20047;-68
2021/06/16 03:44:50;;;;;;;5.95;1.75;;;16.20;63.20;;;;;;4986183;28;20067;-69
2021/06/16 03:47:21;;;;;;;7.50;2.10;;;16.10;63.20;;;;;;4995140;28;20050;-67
2021/06/16 03:49:50;;;;;;;5.93;1.95;;;16.10;63.40;;;;;;4982926;28;20054;-70
2021/06/16 03:52:21;;;;;;;6.43;2.10;;;16.10;63.40;;;;;;4961028;28;20061;-69
2021/06/16 03:54:52;;;;;;;7.30;2.25;;;16.10;63.50;;;;;;4984267;28;20050;-69
2021/06/16 03:57:22;;;;;;;6.50;1.98;;;16.10;63.60;;;;;;4976590;28;20055;-70
2021/06/16 03:59:51;;;;;;;5.68;1.80;;;16.00;63.70;;;;;;4975147;28;20066;-69
2021/06/16 04:02:20;;;;;;;9.98;2.40;;;16.00;63.80;;;;;;4976350;28;20117;-68
2021/06/16 04:04:48;;;;;;;4.38;2.10;;;16.00;63.80;;;;;;4959550;28;20051;-70
2021/06/16 04:07:19;;;;;;;8.23;2.17;;;16.00;63.80;;;;;;4957411;28;20385;-69
2021/06/16 04:09:52;;;;;;;7.90;2.00;;;16.00;63.90;;;;;;4976034;28;20055;-70
2021/06/16 04:12:20;;;;;;;;;;;16.00;64.20;;;;;;4976196;28;20054;-68
2021/06/16 04:14:48;;;;;;;11.05;2.42;;;16.00;64.30;;;;;;4968084;28;19922;-70
2021/06/16 04:17:18;;;;;;;7.65;2.28;;;16.00;64.20;;;;;;4995815;28;20065;-68
2021/06/16 04:19:47;;;;;;;6.85;2.10;;;16.00;64.40;;;;;;4995219;28;20081;-69
2021/06/16 04:22:15;;;;;;;6.03;2.30;;;16.00;64.60;;;;;;4978136;28;20065;-68
2021/06/16 04:24:44;;;;;;;5.43;1.88;;;16.00;64.70;;;;;;4995359;28;20081;-70
2021/06/16 04:27:12;;;;;;;6.55;1.90;;;16.00;64.70;;;;;;4994733;28;20511;-70
2021/06/16 04:29:41;;;;;;;7.05;2.53;;;15.90;64.80;;;;;;4995767;28;20054;-69
2021/06/16 04:32:10;;;;;;;9.02;2.28;;;15.90;64.90;;;;;;4995647;28;20050;-68
2021/06/16 04:34:39;;;;;;;4.72;1.98;;;15.90;64.90;;;;;;4977532;28;20050;-69
2021/06/16 04:37:07;;;;;;;6.28;1.95;;;15.80;64.90;;;;;;4995732;28;20061;-69
2021/06/16 04:39:35;;;;;;;8.68;1.98;;;15.80;64.90;;;;;;4995598;28;20058;-68
2021/06/16 04:42:04;;;;;;;8.02;2.10;;;15.80;65.00;;;;;;4994345;28;20484;-70
2021/06/16 04:44:33;;;;;;;3.88;1.75;;;15.80;65.00;;;;;;4988917;28;20388;-70
2021/06/16 04:47:01;;;;;;;6.30;2.13;;;15.80;65.00;;;;;;4977446;28;20051;-70
2021/06/16 04:49:30;;;;;;;11.38;2.33;;;15.80;65.20;;;;;;4995682;28;20054;-68
2021/06/16 04:51:58;;;;;;;7.30;2.30;;;15.80;65.20;;;;;;4978595;28;20472;-69
2021/06/16 04:54:26;;;;;;;7.80;2.20;;;15.80;65.30;;;;;;4977358;28;20392;-69
2021/06/16 04:56:56;;;;;;;4.25;1.80;;;15.70;65.50;;;;;;4995054;28;20392;-70
2021/06/16 04:59:24;;;;;;;9.65;2.00;;;15.70;65.60;;;;;;4995043;28;20050;-68
2021/06/16 05:01:52;;;;;;;9.05;2.35;;;15.70;65.60;;;;;;4994112;28;20046;-70
2021/06/16 05:04:20;;;;;;;8.05;2.15;;;15.70;65.80;;;;;;4978229;28;20057;-70
2021/06/16 05:06:48;;;;;;;5.55;2.05;;;15.70;65.80;;;;;;4994066;28;20057;-69
2021/06/16 05:09:17;;;;;;;6.15;2.17;;;15.70;65.80;;;;;;4995196;28;20065;-70
2021/06/16 05:11:46;;;;;;;8.60;2.45;;;15.70;65.80;;;;;;4995551;28;20471;-68
2021/06/16 05:14:14;;;;;;;6.45;2.33;;;15.70;65.60;;;;;;4994327;28;20058;-70
2021/06/16 05:16:42;;;;;;;5.40;2.08;;;15.60;65.60;;;;;;4977006;28;20054;-69
2021/06/16 05:19:16;;;;;;;8.60;2.20;;;15.60;65.60;;;;;;4978510;28;20059;-68
2021/06/16 05:21:46;;;;;;;6.05;2.30;;;15.70;65.70;;;;;;4962159;28;20070;-69
2021/06/16 05:24:15;;;;;;;7.63;2.15;;;15.70;65.80;;;;;;4979647;28;20050;-69
2021/06/16 05:26:44;;;;;;;5.25;2.00;;;15.70;65.90;;;;;;4978301;28;20066;-69
2021/06/16 05:29:12;;;;;;;6.72;2.15;;;15.70;66.00;;;;;;4979037;28;20054;-69
2021/06/16 05:31:39;;;;;;;7.60;1.90;;;15.70;66.10;;;;;;4979700;28;20386;-70
2021/06/16 05:34:08;;;;;;;9.25;2.10;;;15.70;66.10;;;;;;4977250;28;20051;-70
2021/06/16 05:36:36;;;;;;;6.05;2.00;;;15.70;66.30;;;;;;4979145;28;20066;-70
2021/06/16 05:39:05;;;;;;;5.93;2.08;;;15.70;66.30;;;;;;4979371;28;20074;-68
2021/06/16 05:41:34;;;;;;;8.38;2.28;;;15.70;66.20;;;;;;4977506;28;20081;-68
2021/06/16 05:44:02;;;;;;;8.75;2.10;;;15.60;66.20;;;;;;4982436;28;20065;-70
2021/06/16 05:46:30;;;;;;;6.38;2.00;;;15.70;66.00;;;;;;4980607;28;20073;-68
2021/06/16 05:48:58;;;;;;;10.73;2.28;;;15.70;65.70;;;;;;4998116;28;20050;-70
2021/06/16 05:51:27;;;;;;;7.00;2.20;;;15.80;65.50;;;;;;4998762;28;20468;-69
2021/06/16 05:53:55;;;;;;;8.23;2.08;;;15.80;65.40;;;;;;4997193;28;20050;-68
2021/06/16 05:56:23;;;;;;;11.50;2.13;;;15.90;65.30;;;;;;4981642;28;20065;-71
2021/06/16 05:58:51;;;;;;;7.20;1.70;;;16.00;65.00;;;;;;4997618;28;20055;-68
2021/06/16 06:01:19;;;;;;;4.05;1.70;;;16.00;64.80;;;;;;4997929;28;20475;-70
2021/06/16 06:03:47;;;;;;;5.97;1.75;;;16.00;64.70;;;;;;4998674;28;20061;-71
2021/06/16 06:06:15;;;;;;;6.97;2.17;;;16.00;64.70;;;;;;4997818;28;20066;-69
2021/06/16 06:08:43;;;;;;;11.20;2.63;;;16.10;64.70;;;;;;4979243;28;20061;-69
2021/06/16 06:11:11;;;;;;;7.80;1.83;;;16.10;64.50;;;;;;4997763;28;20042;-70
2021/06/16 06:13:39;;;;;;;5.97;1.83;;;16.20;64.50;;;;;;4995650;28;20366;-71
2021/06/16 06:16:08;;;;;;;8.95;2.10;;;16.20;64.70;;;;;;4997882;28;20046;-70
2021/06/16 06:18:36;;;;;;;6.93;1.98;;;16.20;64.70;;;;;;4997560;28;20066;-68
2021/06/16 06:21:04;;;;;;;10.63;1.90;;;16.30;64.70;;;;;;4988857;28;20078;-69
2021/06/16 06:23:32;;;;;;;9.60;2.25;;;16.30;64.70;;;;;;4978289;28;20055;-71
2021/06/16 06:25:59;;;;;;;9.48;2.05;;;16.30;64.70;;;;;;4977963;28;20508;-69
2021/06/16 06:28:28;;;;;;;7.88;1.88;;;16.30;64.70;;;;;;4959889;28;20049;-68
2021/06/16 06:30:56;;;;;;;13.52;1.83;;;16.30;64.80;;;;;;4976166;28;20047;-70
2021/06/16 06:33:24;;;;;;;9.00;1.90;;;16.30;64.80;;;;;;4976764;28;20047;-70
2021/06/16 06:35:52;;;;;;;6.32;2.00;;;16.30;64.80;;;;;;4978199;28;20055;-69
2021/06/16 06:38:20;;;;;;;5.20;2.13;;;16.30;64.80;;;;;;4978020;28;20365;-70
2021/06/16 06:40:48;;;;;;;7.28;2.08;;;16.30;64.90;;;;;;4975985;28;20054;-70
2021/06/16 06:43:16;;;;;;;9.98;2.25;;;16.30;64.90;;;;;;4960842;28;20051;-69
2021/06/16 06:45:45;;;;;;;9.43;2.20;;;16.30;64.90;;;;;;4967719;28;20059;-70
2021/06/16 06:48:13;;;;;;;6.15;2.38;;;16.40;65.10;;;;;;4976302;28;20058;-69
2021/06/16 06:50:41;;;;;;;7.68;2.10;;;16.40;65.10;;;;;;4961051;28;20408;-71
2021/06/16 06:53:09;;;;;;;9.43;1.83;;;16.50;65.20;;;;;;4976983;28;20046;-70
2021/06/16 06:55:37;;;;;;;5.60;2.03;;;16.50;65.30;;;;;;4977119;28;20046;-70
2021/06/16 06:58:05;;;;;;;7.88;1.83;;;16.60;65.20;;;;;;4978339;28;20062;-68
2021/06/16 07:00:33;;;;;;;9.55;2.20;;;16.60;65.10;;;;;;4976496;28;20050;-69
2021/06/16 07:03:01;;;;;;;7.60;2.10;;;16.70;65.10;;;;;;4976816;28;20408;-70
2021/06/16 07:05:29;;;;;;;8.30;2.30;;;16.70;65.00;;;;;;4977411;28;20059;-69
2021/06/16 07:07:57;;;;;;;6.32;1.92;;;16.70;65.20;;;;;;4975848;28;20069;-70
2021/06/16 07:10:25;;;;;;;7.28;2.13;;;16.80;65.30;;;;;;4976679;28;20059;-68
2021/06/16 07:12:53;;;;;;;10.27;2.20;;;16.80;65.40;;;;;;4976723;28;20053;-70
2021/06/16 07:15:22;;;;;;;9.38;2.40;;;16.80;65.40;;;;;;4984819;28;20073;-71
2021/06/16 07:17:50;;;;;;;11.60;2.42;;;16.80;65.40;;;;;;4974749;28;20058;-70
2021/06/16 07:20:18;;;;;;;6.97;1.90;;;16.80;65.40;;;;;;4976419;28;20046;-69
2021/06/16 07:22:48;;;;;;;9.70;2.35;;;16.90;65.50;;;;;;4959689;28;20054;-69
2021/06/16 07:25:18;;;;;;;11.93;2.30;;;16.90;65.50;;;;;;4977112;28;20058;-69
2021/06/16 07:27:46;;;;;;;12.38;2.53;;;17.00;65.30;;;;;;4975914;28;20054;-68
2021/06/16 07:30:15;;;;;;;9.00;2.47;;;17.00;65.50;;;;;;4976446;28;20042;-70
2021/06/16 07:32:43;;;;;;;7.88;2.20;;;17.20;65.30;;;;;;4976453;28;20065;-70
2021/06/16 07:35:13;;;;;;;7.22;2.05;;;17.20;65.20;;;;;;4975677;28;20339;-68
2021/06/16 07:37:41;;;;;;;11.43;2.00;;;17.30;65.00;;;;;;4976317;28;20065;-69
2021/06/16 07:40:10;;;;;;;8.07;2.10;;;17.30;64.80;;;;;;4975908;28;20058;-69
2021/06/16 07:42:41;;;;;;;20.65;2.28;;;17.30;64.40;;;;;;4958155;28;20051;-70
2021/06/16 07:45:10;;;;;;;11.98;1.92;;;17.30;64.00;;;;;;4976673;28;20051;-70
2021/06/16 07:47:38;;;;;;;8.68;1.90;;;17.40;63.50;;;;;;4975882;28;20069;-70
2021/06/16 07:50:08;;;;;;;7.50;2.28;;;17.50;63.20;;;;;;4959364;28;20050;-70
2021/06/16 07:52:37;;;;;;;12.10;2.10;;;17.60;62.90;;;;;;4976122;28;20473;-70
2021/06/16 07:55:06;;;;;;;5.88;1.85;;;17.60;62.40;;;;;;4975340;28;20046;-69
2021/06/16 07:57:35;;;;;;;7.72;1.88;;;17.60;62.40;;;;;;4976180;28;20532;-69
2021/06/16 08:00:05;;;;;;;6.25;1.85;;;17.70;62.20;;;;;;4975121;28;20058;-70
2021/06/16 08:02:40;;;;;;;5.30;1.65;;;17.80;61.50;;;;;;4963161;28;20469;-70
2021/06/16 08:05:13;;;;;;;5.57;1.58;;;17.80;61.10;;;;;;4959747;28;20378;-68
2021/06/16 08:07:42;;;;;;;4.97;1.88;;;17.80;60.50;;;;;;4958611;28;20059;-68
2021/06/16 08:10:11;;;;;;;10.13;1.60;;;17.80;60.00;;;;;;4959132;28;20049;-68
2021/06/16 08:12:41;;;;;;;5.55;1.40;;;17.90;59.50;;;;;;4976060;28;20043;-68
2021/06/16 08:15:10;;;;;;;5.93;1.30;;;17.90;57.90;;;;;;4958296;28;20047;-69
2021/06/16 08:17:38;;;;;;;4.97;1.05;;;18.00;57.20;;;;;;4975174;28;20389;-70
2021/06/16 08:20:07;;;;;;;3.80;1.27;;;18.10;56.90;;;;;;4958539;28;20042;-70
2021/06/16 08:22:36;;;;;;;5.40;1.48;;;18.10;56.70;;;;;;4975699;28;20059;-69
2021/06/16 08:25:07;;;;;;;6.10;1.40;;;18.20;56.50;;;;;;4975664;28;20055;-70
2021/06/16 08:27:34;;;;;;;6.07;1.40;;;18.30;56.00;;;;;;4975131;28;20062;-70
2021/06/16 08:30:03;;;;;;;6.32;1.65;;;18.30;55.30;;;;;;4975352;28;20377;-70
2021/06/16 08:32:31;;;;;;;5.18;1.30;;;18.30;54.80;;;;;;4976145;28;20047;-71
2021/06/16 08:34:59;;;;;;;2.67;1.25;;;18.30;54.40;;;;;;4958099;28;20385;-70
2021/06/16 08:37:28;;;;;;;5.82;1.50;;;18.40;54.30;;;;;;4958429;28;20047;-70
2021/06/16 08:39:56;;;;;;;5.40;1.20;;;18.40;53.90;;;;;;4958041;28;20051;-69
2021/06/16 08:42:26;;;;;;;4.03;1.20;;;18.60;53.40;;;;;;4965301;28;20054;-70
2021/06/16 08:44:55;;;;;;;5.75;1.27;;;18.60;52.70;;;;;;4994488;28;20054;-69
2021/06/16 08:47:25;;;;;;;4.57;1.30;;;18.60;52.70;;;;;;4970989;28;20128;-70
2021/06/16 08:49:54;;;;;;;5.55;1.10;;;18.70;52.50;;;;;;4957849;28;20058;-69
2021/06/16 08:52:22;;;;;;;3.45;1.08;;;18.70;51.90;;;;;;4957972;28;20409;-69
2021/06/16 08:54:50;;;;;;;3.95;0.95;;;18.80;52.00;;;;;;4976521;28;20050;-70
2021/06/16 08:57:18;;;;;;;3.55;1.20;;;18.80;51.90;;;;;;4978415;28;20365;-68
2021/06/16 08:59:46;;;;;;;6.30;1.25;;;18.90;51.10;;;;;;4960974;28;20055;-70
2021/06/16 09:02:14;;;;;;;7.30;1.50;;;19.00;51.40;;;;;;4961203;28;20059;-68
2021/06/16 09:04:53;;;;;;;3.72;1.10;;;19.00;51.40;;;;;;4980111;28;20046;-69
2021/06/16 09:07:26;;;;;;;6.25;1.10;;;19.10;51.10;;;;;;4978704;28;20059;-68
2021/06/16 09:10:15;;;;;;;3.78;1.15;;;19.10;51.30;;;;;;4963281;28;20054;-70
2021/06/16 09:12:59;;;;;;;3.88;1.10;;;19.20;51.30;;;;;;4979871;28;20054;-69
2021/06/16 09:15:29;;;;;;;8.07;1.25;;;19.30;50.90;;;;;;4976249;28;20047;-69
2021/06/16 09:18:09;;;;;;;4.28;1.15;;;19.30;50.80;;;;;;4978788;28;20059;-69
2021/06/16 09:20:44;;;;;;;4.78;1.30;;;19.40;50.70;;;;;;4977896;28;20058;-70
2021/06/16 09:23:20;;;;;;;3.75;1.10;;;19.40;50.20;;;;;;4978166;28;20081;-68
2021/06/16 09:26:04;;;;;;;4.45;1.10;;;19.50;49.60;;;;;;4978085;28;20043;-68
2021/06/16 09:28:40;;;;;;;4.07;1.20;;;19.60;49.10;;;;;;4958642;29;20051;-69
2021/06/16 09:31:12;;;;;;;5.60;1.00;;;19.60;48.90;;;;;;4977214;28;20050;-70
2021/06/16 09:33:42;;;;;;;2.90;1.13;;;19.60;49.00;;;;;;4992083;28;20372;-70
2021/06/16 09:36:13;;;;;;;7.05;1.20;;;19.70;49.20;;;;;;4980427;28;20050;-69
2021/06/16 09:38:47;;;;;;;4.43;1.30;;;19.80;49.40;;;;;;4996754;28;20515;-69
2021/06/16 09:41:20;;;;;;;4.47;1.05;;;19.80;49.70;;;;;;4996579;28;20062;-69
2021/06/16 09:43:56;;;;;;;4.38;1.17;;;19.80;49.80;;;;;;4980519;28;20061;-69
2021/06/16 09:46:24;;;;;;;5.63;1.50;;;19.90;49.70;;;;;;4983630;28;20489;-69
2021/06/16 09:48:52;;;;;;;4.80;1.08;;;19.90;50.00;;;;;;4960275;28;20055;-69
2021/06/16 09:51:29;;;;;;;8.02;1.63;;;20.00;50.30;;;;;;4978109;28;20046;-68
2021/06/16 09:54:18;;;;;;;;;;;20.00;50.00;;;;;;4977316;28;20061;-69
2021/06/16 09:56:58;;;;;;;6.43;1.10;;;20.00;49.70;;;;;;4977754;28;20233;-70
2021/06/16 09:59:42;;;;;;;5.45;1.30;;;20.10;49.90;;;;;;4977926;28;20058;-70
2021/06/16 10:02:23;;;;;;;5.03;1.20;;;20.20;50.20;;;;;;4977278;28;20067;-69
2021/06/16 10:04:57;;;;;;;3.80;1.10;;;20.30;49.80;;;;;;4977821;28;20489;-69
2021/06/16 10:07:30;;;;;;;4.60;1.08;;;20.30;49.60;;;;;;4976710;28;20474;-69
2021/06/16 10:10:08;;;;;;;3.95;1.20;;;20.40;49.60;;;;;;4977424;28;20059;-70
2021/06/16 10:12:39;;;;;;;3.30;1.15;;;20.50;49.40;;;;;;4977756;28;20082;-69
2021/06/16 10:15:10;;;;;;;3.35;1.02;;;20.60;49.20;;;;;;4976243;28;20370;-69
2021/06/16 10:17:39;;;;;;;3.38;1.02;;;20.70;48.90;;;;;;4960618;28;20110;-69
2021/06/16 10:20:09;;;;;;;4.43;1.33;;;20.80;48.70;;;;;;4959721;28;20063;-69
2021/06/16 10:22:36;;;;;;;4.20;0.98;;;20.90;48.30;;;;;;4976516;28;20063;-68
2021/06/16 10:25:06;;;;;;;4.13;1.13;;;21.00;47.70;;;;;;4976704;28;20075;-70
2021/06/16 10:27:45;;;;;;;6.25;1.30;;;21.10;47.70;;;;;;4975929;28;20063;-69
2021/06/16 10:30:16;;;;;;;5.03;1.42;;;21.30;47.80;;;;;;4960574;28;20050;-70
2021/06/16 10:32:47;;;;;;;10.10;1.60;;;21.40;47.70;;;;;;4976696;28;20166;-69
2021/06/16 10:35:36;;;;;;;10.05;1.52;;;21.60;47.60;;;;;;4976327;28;20050;-71
2021/06/16 10:38:11;;;;;;;4.05;0.90;;;21.80;47.30;;;;;;4960022;28;20055;-70
2021/06/16 10:40:54;;;;;;;1.85;1.00;;;21.90;47.30;;;;;;4959326;28;20457;-70
2021/06/16 10:43:41;;;;;;;6.88;1.17;;;22.10;47.10;;;;;;4976063;28;20061;-70
2021/06/16 10:46:13;;;;;;;2.95;1.35;;;22.20;46.50;;;;;;4969879;28;20065;-70
2021/06/16 10:48:57;;;;;;;3.72;1.10;;;22.30;46.30;;;;;;4958909;28;20507;-70
2021/06/16 10:51:33;;;;;;;6.28;1.10;;;22.40;46.30;;;;;;4977048;28;20066;-71
2021/06/16 10:54:15;;;;;;;2.28;0.95;;;22.60;46.00;;;;;;4958865;28;20066;-70
2021/06/16 10:56:59;;;;;;;4.10;0.90;;;22.80;45.70;;;;;;4976571;28;20051;-68
2021/06/16 10:59:46;;;;;;;3.40;1.10;;;23.00;45.50;;;;;;4960149;28;20062;-70
2021/06/16 11:02:38;;;;;;;3.38;1.10;;;23.10;45.20;;;;;;4976939;28;20055;-69
2021/06/16 11:05:22;;;;;;;3.33;0.80;;;23.30;45.40;;;;;;4970106;28;20061;-70
2021/06/16 11:07:50;;;;;;;2.10;0.82;;;23.60;45.30;;;;;;4943413;28;20046;-69
2021/06/16 11:10:19;;;;;;;4.55;1.10;;;23.70;45.10;;;;;;4976184;28;20484;-70
2021/06/16 11:12:54;;;;;;;13.88;4.47;;;23.80;45.00;;;;;;4977210;28;20051;-70
2021/06/16 11:15:25;;;;;;;2.13;0.63;;;24.00;45.10;;;;;;4975610;28;20062;-70
2021/06/16 11:17:59;;;;;;;2.60;1.10;;;24.20;45.00;;;;;;4977233;28;20055;-71
2021/06/16 11:20:41;;;;;;;3.85;1.08;;;24.30;44.50;;;;;;4975489;28;20121;-70
2021/06/16 11:23:20;;;;;;;2.42;0.75;;;24.50;44.20;;;;;;4977129;28;20061;-69
2021/06/16 11:25:50;;;;;;;1.65;0.70;;;24.60;44.00;;;;;;4977381;28;20081;-70
2021/06/16 11:28:49;;;;;;;1.67;0.85;;;24.70;43.80;;;;;;4957213;28;20046;-69
2021/06/16 11:31:18;;;;;;;1.77;0.65;;;24.70;43.70;;;;;;4976196;28;20161;-68
2021/06/16 11:33:48;;;;;;;2.13;0.73;;;24.60;43.70;;;;;;4978266;28;20354;-70
2021/06/16 11:36:20;;;;;;;3.25;0.82;;;24.60;43.90;;;;;;4979665;28;20061;-70
2021/06/16 11:38:59;;;;;;;4.75;0.70;;;24.70;43.90;;;;;;4997033;28;20342;-70
2021/06/16 11:41:27;;;;;;;1.70;0.50;;;24.80;43.90;;;;;;4995200;28;20061;-69
2021/06/16 11:44:09;;;;;;;1.33;0.60;;;24.80;44.10;;;;;;4978817;28;20050;-70
2021/06/16 11:46:43;;;;;;;0.88;0.50;;;24.90;44.50;;;;;;4964236;28;20069;-70
2021/06/16 11:49:20;;;;;;;2.65;0.98;;;25.00;44.20;;;;;;4975786;28;20058;-69
2021/06/16 11:52:00;;;;;;;2.17;0.50;;;25.10;43.90;;;;;;4975807;28;20061;-70
2021/06/16 11:54:35;;;;;;;1.92;0.77;;;25.10;43.90;;;;;;4959045;28;20473;-70
2021/06/16 11:57:12;;;;;;;1.77;0.70;;;25.10;43.90;;;;;;4959864;28;20058;-70
2021/06/16 11:59:47;;;;;;;3.38;0.80;;;25.20;43.90;;;;;;4977118;28;20362;-70
2021/06/16 12:02:24;;;;;;;2.20;0.55;;;25.30;43.90;;;;;;4960542;28;20050;-70
2021/06/16 12:05:09;;;;;;;1.58;0.68;;;25.30;43.70;;;;;;4976939;28;20488;-70
2021/06/16 12:07:44;;;;;;;1.77;0.60;;;25.40;43.30;;;;;;4975778;28;20054;-70
2021/06/16 12:10:14;;;;;;;1.98;0.73;;;25.50;43.20;;;;;;4943984;28;20406;-69
2021/06/16 12:12:48;;;;;;;3.47;0.70;;;25.50;43.00;;;;;;4976149;28;20061;-69
2021/06/16 12:15:19;;;;;;;5.20;0.57;;;25.50;42.80;;;;;;4975297;28;20382;-70
2021/06/16 12:18:02;;;;;;;3.08;0.80;;;25.50;42.70;;;;;;4976078;28;20488;-69
2021/06/16 12:20:42;;;;;;;1.93;0.80;;;25.50;42.70;;;;;;4975640;28;20061;-71
2021/06/16 12:23:32;;;;;;;3.22;0.90;;;25.60;43.00;;;;;;4943212;28;20389;-69
2021/06/16 12:26:14;;;;;;;3.58;0.73;;;25.60;43.10;;;;;;4959512;28;20057;-70
2021/06/16 12:28:48;;;;;;;;;;;25.50;43.20;;;;;;4956338;28;20055;-70
2021/06/16 12:31:28;;;;;;;2.63;0.90;;;25.30;43.20;;;;;;4958998;28;19922;-69
2021/06/16 12:36:35;;;;;;;2.22;0.70;;;25.10;43.80;;;;;;4958663;28;20042;-70
2021/06/16 12:39:03;;;;;;;3.83;0.80;;;25.00;44.20;;;;;;4959651;28;20047;-69
2021/06/16 12:41:40;;;;;;;3.20;0.65;;;24.90;44.50;;;;;;4975000;28;20063;-70
2021/06/16 12:44:24;;;;;;;2.72;0.90;;;24.90;44.60;;;;;;4975762;28;20069;-70
2021/06/16 12:46:59;;;;;;;1.90;0.70;;;24.90;44.60;;;;;;4976958;28;20054;-70
2021/06/16 12:49:47;;;;;;;5.10;0.70;;;24.80;44.90;;;;;;4995748;28;20101;-70
2021/06/16 12:52:31;;;;;;;1.95;0.73;;;24.80;45.30;;;;;;4995447;28;20050;-69
2021/06/16 12:55:13;;;;;;;2.60;0.63;;;24.70;46.00;;;;;;4961062;28;20047;-70
2021/06/16 12:57:52;;;;;;;;;;;24.80;46.60;;;;;;4978744;28;20412;-70
2021/06/16 13:00:29;;;;;;;2.60;0.80;;;24.80;46.50;;;;;;4977369;28;19932;-70
2021/06/16 13:03:21;;;;;;;3.72;0.55;;;24.90;46.60;;;;;;4977385;28;20065;-71
2021/06/16 13:06:04;;;;;;;2.83;0.73;;;25.00;46.30;;;;;;4977164;28;20384;-69
2021/06/16 13:08:40;;;;;;;1.08;0.50;;;25.20;45.90;;;;;;4993508;28;20065;-69
2021/06/16 13:11:21;;;;;;;2.00;0.70;;;25.40;45.30;;;;;;4994258;28;20046;-70
2021/06/16 13:14:16;;;;;;;2.92;0.43;;;25.40;44.70;;;;;;4976983;28;20050;-70